Главная страница
METAR-TAF:

METAR-TAF

Аэропорты :

Каяни

Каяани, Финляндия

широта: 64-17N, долгота: 027-41E, высота над уровнем моря: 143 м

Текущие метеонаблюдения

Эта сводка был подготовлена 20 минут назад, в 16:20 UTC
Ветер 8 Узел от северно-северо-западный, изменяющийся между западно-северо-западный и северный
Температура 17°C
Влажность 52%
Давление 1010 hPa
Видимость 10 км и более
Нет облачности ниже 1500 м, и нет кучево-дождевой облачности

METAR: EFKI 221620Z AUTO 33008KT 300V360 CAVOK 17/07 Q1010

Время: 19:40 (16:40 UTC)


TAF: отсутствует

Метеонаблюдения и прогнозы для более 4000 аэропортов (сводки METAR и TAF).

Имеющиеся станции представлены на карте желтыми и красными точками.

Чтобы увидеть название станции, наведите на нее мышь.

Затем щелкните, чтобы увидеть метеонаблюдения и метеопрогнозы.

Управление картой: чтобы увеличить масштаб, щелкните зеленые кнопки с черным крестиком; чтобы уменьшить масштаб, щелкните зеленую кнопку с тире; для просмотра соседних карт щелкайте зеленые стрелки.


METAR-TAF: